Blodgett, Oregon
Current Conditions -  °F | °C
As of 12:55 PM on Friday 19 Dec 2014 (Local Time) from KCVO Reporting Station
Few Clouds Few Clouds  
Wind Chill: 52°   Ceiling: Unl
Heat Index: 52°   Visibility: 10mi
Dew Point: 45°   Wind: 12mph
Humidity: 76%   Direction: 190°S
Pressure: 30.04"   Gusts: NA
Location:  44.6°N, 123.52°W
Report Text: KCVO 192055Z AUTO 19010KT 10SM FEW070 11/07 A3004 RMK AO1 P0001 60002 54000
Loading
Personal Weather Stations






























Interactive Weather Map New forecast layout! Learn more

10-Day Weather Forecast

Advertisements
Track Severe Weather on mobile